sensor_id;sensor_type;location;lat;lon;timestamp;P1;durP1;ratioP1;P2;durP2;ratioP2
21392;SDS011;10857;52.228;21.026;2024-03-07T00:00:35;30.57;;;17.73;;
21392;SDS011;10857;52.228;21.026;2024-03-07T00:03:02;33.27;;;18.17;;
21392;SDS011;10857;52.228;21.026;2024-03-07T00:05:30;34.30;;;18.77;;
21392;SDS011;10857;52.228;21.026;2024-03-07T00:07:57;32.67;;;18.43;;
21392;SDS011;10857;52.228;21.026;2024-03-07T00:10:25;31.20;;;18.33;;
21392;SDS011;10857;52.228;21.026;2024-03-07T00:12:52;36.13;;;18.57;;
21392;SDS011;10857;52.228;21.026;2024-03-07T00:15:19;32.97;;;18.67;;
21392;SDS011;10857;52.228;21.026;2024-03-07T00:17:48;32.93;;;18.83;;
21392;SDS011;10857;52.228;21.026;2024-03-07T00:20:15;34.77;;;19.03;;
21392;SDS011;10857;52.228;21.026;2024-03-07T00:22:46;31.50;;;18.17;;
21392;SDS011;10857;52.228;21.026;2024-03-07T00:25:13;35.13;;;19.37;;
21392;SDS011;10857;52.228;21.026;2024-03-07T00:27:46;33.73;;;18.53;;
21392;SDS011;10857;52.228;21.026;2024-03-07T00:30:14;34.60;;;18.53;;
21392;SDS011;10857;52.228;21.026;2024-03-07T00:32:45;35.60;;;18.93;;
21392;SDS011;10857;52.228;21.026;2024-03-07T00:35:14;39.03;;;20.73;;
21392;SDS011;10857;52.228;21.026;2024-03-07T00:37:41;40.47;;;20.93;;
21392;SDS011;10857;52.228;21.026;2024-03-07T00:40:09;38.73;;;20.00;;
21392;SDS011;10857;52.228;21.026;2024-03-07T00:42:37;35.70;;;19.53;;
21392;SDS011;10857;52.228;21.026;2024-03-07T00:45:04;36.13;;;18.73;;
21392;SDS011;10857;52.228;21.026;2024-03-07T00:47:33;35.17;;;19.30;;
21392;SDS011;10857;52.228;21.026;2024-03-07T00:50:00;35.00;;;19.57;;
21392;SDS011;10857;52.228;21.026;2024-03-07T00:52:29;34.53;;;18.80;;
21392;SDS011;10857;52.228;21.026;2024-03-07T00:54:56;35.03;;;18.63;;
21392;SDS011;10857;52.228;21.026;2024-03-07T00:57:23;35.00;;;18.27;;
21392;SDS011;10857;52.228;21.026;2024-03-07T00:59:52;33.37;;;18.60;;
21392;SDS011;10857;52.228;21.026;2024-03-07T01:02:19;34.17;;;18.17;;
21392;SDS011;10857;52.228;21.026;2024-03-07T01:04:46;33.87;;;18.30;;
21392;SDS011;10857;52.228;21.026;2024-03-07T01:07:13;31.60;;;17.50;;
21392;SDS011;10857;52.228;21.026;2024-03-07T01:09:40;33.30;;;18.20;;
21392;SDS011;10857;52.228;21.026;2024-03-07T01:12:07;32.77;;;18.43;;
21392;SDS011;10857;52.228;21.026;2024-03-07T01:14:36;32.67;;;17.43;;
21392;SDS011;10857;52.228;21.026;2024-03-07T01:17:04;33.83;;;18.37;;
21392;SDS011;10857;52.228;21.026;2024-03-07T01:19:34;33.27;;;18.20;;
21392;SDS011;10857;52.228;21.026;2024-03-07T01:22:01;34.90;;;18.47;;
21392;SDS011;10857;52.228;21.026;2024-03-07T01:24:29;33.60;;;18.27;;
21392;SDS011;10857;52.228;21.026;2024-03-07T01:26:56;33.60;;;18.40;;
21392;SDS011;10857;52.228;21.026;2024-03-07T01:29:23;33.30;;;18.43;;
21392;SDS011;10857;52.228;21.026;2024-03-07T01:31:50;33.10;;;18.13;;
21392;SDS011;10857;52.228;21.026;2024-03-07T01:34:17;32.90;;;17.67;;
21392;SDS011;10857;52.228;21.026;2024-03-07T01:36:44;32.67;;;17.80;;
21392;SDS011;10857;52.228;21.026;2024-03-07T01:39:12;35.00;;;18.60;;
21392;SDS011;10857;52.228;21.026;2024-03-07T01:41:39;32.87;;;18.40;;
21392;SDS011;10857;52.228;21.026;2024-03-07T01:44:07;33.30;;;18.13;;
21392;SDS011;10857;52.228;21.026;2024-03-07T01:46:34;32.37;;;17.97;;
21392;SDS011;10857;52.228;21.026;2024-03-07T01:49:01;36.07;;;18.20;;
21392;SDS011;10857;52.228;21.026;2024-03-07T01:51:28;37.27;;;19.23;;
21392;SDS011;10857;52.228;21.026;2024-03-07T01:53:55;35.63;;;19.40;;
21392;SDS011;10857;52.228;21.026;2024-03-07T01:56:23;37.17;;;19.70;;
21392;SDS011;10857;52.228;21.026;2024-03-07T01:58:51;34.43;;;18.77;;
21392;SDS011;10857;52.228;21.026;2024-03-07T02:01:19;32.07;;;18.63;;
21392;SDS011;10857;52.228;21.026;2024-03-07T02:03:47;34.83;;;18.93;;
21392;SDS011;10857;52.228;21.026;2024-03-07T02:06:14;35.60;;;18.90;;
21392;SDS011;10857;52.228;21.026;2024-03-07T02:08:41;32.60;;;18.60;;
21392;SDS011;10857;52.228;21.026;2024-03-07T02:11:08;38.90;;;19.43;;
21392;SDS011;10857;52.228;21.026;2024-03-07T02:13:36;34.93;;;19.40;;
21392;SDS011;10857;52.228;21.026;2024-03-07T02:16:03;34.97;;;18.87;;
21392;SDS011;10857;52.228;21.026;2024-03-07T02:18:31;38.20;;;19.10;;
21392;SDS011;10857;52.228;21.026;2024-03-07T02:20:59;36.73;;;19.17;;
21392;SDS011;10857;52.228;21.026;2024-03-07T02:23:26;35.70;;;19.17;;
21392;SDS011;10857;52.228;21.026;2024-03-07T02:25:54;32.90;;;18.23;;
21392;SDS011;10857;52.228;21.026;2024-03-07T02:28:21;33.07;;;18.43;;
21392;SDS011;10857;52.228;21.026;2024-03-07T02:30:48;34.23;;;19.60;;
21392;SDS011;10857;52.228;21.026;2024-03-07T02:33:15;34.30;;;18.63;;
21392;SDS011;10857;52.228;21.026;2024-03-07T02:35:42;40.63;;;19.77;;
21392;SDS011;10857;52.228;21.026;2024-03-07T02:38:09;35.77;;;19.23;;
21392;SDS011;10857;52.228;21.026;2024-03-07T02:40:37;35.60;;;18.23;;
21392;SDS011;10857;52.228;21.026;2024-03-07T02:43:04;38.17;;;18.77;;
21392;SDS011;10857;52.228;21.026;2024-03-07T02:45:31;35.73;;;18.87;;
21392;SDS011;10857;52.228;21.026;2024-03-07T02:47:59;37.83;;;19.17;;
21392;SDS011;10857;52.228;21.026;2024-03-07T02:50:26;37.07;;;19.07;;
21392;SDS011;10857;52.228;21.026;2024-03-07T02:52:53;34.10;;;18.57;;
21392;SDS011;10857;52.228;21.026;2024-03-07T02:55:20;39.67;;;19.60;;
21392;SDS011;10857;52.228;21.026;2024-03-07T02:57:48;35.57;;;18.53;;
21392;SDS011;10857;52.228;21.026;2024-03-07T03:00:15;37.83;;;19.83;;
21392;SDS011;10857;52.228;21.026;2024-03-07T03:02:53;36.00;;;18.80;;
21392;SDS011;10857;52.228;21.026;2024-03-07T03:05:21;36.50;;;19.07;;
21392;SDS011;10857;52.228;21.026;2024-03-07T03:07:49;39.77;;;18.93;;
21392;SDS011;10857;52.228;21.026;2024-03-07T03:12:56;35.60;;;19.17;;
21392;SDS011;10857;52.228;21.026;2024-03-07T03:15:28;36.60;;;18.53;;
21392;SDS011;10857;52.228;21.026;2024-03-07T03:17:56;39.67;;;19.80;;
21392;SDS011;10857;52.228;21.026;2024-03-07T03:20:28;36.50;;;19.57;;
21392;SDS011;10857;52.228;21.026;2024-03-07T03:23:06;35.80;;;19.60;;
21392;SDS011;10857;52.228;21.026;2024-03-07T03:25:46;42.67;;;20.00;;
21392;SDS011;10857;52.228;21.026;2024-03-07T03:28:15;37.17;;;18.60;;
21392;SDS011;10857;52.228;21.026;2024-03-07T03:30:46;40.77;;;19.80;;
21392;SDS011;10857;52.228;21.026;2024-03-07T03:33:14;38.23;;;19.53;;
21392;SDS011;10857;52.228;21.026;2024-03-07T03:35:42;42.00;;;20.20;;
21392;SDS011;10857;52.228;21.026;2024-03-07T03:38:09;35.50;;;18.83;;
21392;SDS011;10857;52.228;21.026;2024-03-07T03:40:36;38.30;;;19.30;;
21392;SDS011;10857;52.228;21.026;2024-03-07T03:43:03;39.97;;;19.37;;
21392;SDS011;10857;52.228;21.026;2024-03-07T03:45:31;41.60;;;19.47;;
21392;SDS011;10857;52.228;21.026;2024-03-07T03:48:01;34.80;;;18.20;;
21392;SDS011;10857;52.228;21.026;2024-03-07T03:50:29;41.83;;;19.80;;
21392;SDS011;10857;52.228;21.026;2024-03-07T03:52:56;38.10;;;19.03;;
21392;SDS011;10857;52.228;21.026;2024-03-07T03:55:24;42.93;;;19.37;;
21392;SDS011;10857;52.228;21.026;2024-03-07T03:57:51;37.17;;;19.47;;
21392;SDS011;10857;52.228;21.026;2024-03-07T04:00:19;35.50;;;19.70;;
21392;SDS011;10857;52.228;21.026;2024-03-07T04:02:49;38.07;;;19.30;;
21392;SDS011;10857;52.228;21.026;2024-03-07T04:05:18;38.53;;;18.77;;
21392;SDS011;10857;52.228;21.026;2024-03-07T04:07:48;39.77;;;19.37;;
21392;SDS011;10857;52.228;21.026;2024-03-07T04:10:15;37.67;;;20.03;;
21392;SDS011;10857;52.228;21.026;2024-03-07T04:12:44;41.57;;;19.57;;
21392;SDS011;10857;52.228;21.026;2024-03-07T04:15:12;39.20;;;19.37;;
21392;SDS011;10857;52.228;21.026;2024-03-07T04:17:44;37.77;;;19.37;;
21392;SDS011;10857;52.228;21.026;2024-03-07T04:20:15;36.97;;;18.80;;
21392;SDS011;10857;52.228;21.026;2024-03-07T04:22:45;37.37;;;19.00;;
21392;SDS011;10857;52.228;21.026;2024-03-07T04:25:13;37.20;;;19.53;;
21392;SDS011;10857;52.228;21.026;2024-03-07T04:27:41;40.40;;;19.73;;
21392;SDS011;10857;52.228;21.026;2024-03-07T04:30:09;38.80;;;18.80;;
21392;SDS011;10857;52.228;21.026;2024-03-07T04:32:37;39.13;;;19.33;;
21392;SDS011;10857;52.228;21.026;2024-03-07T04:35:06;41.10;;;19.53;;
21392;SDS011;10857;52.228;21.026;2024-03-07T04:37:40;40.13;;;18.83;;
21392;SDS011;10857;52.228;21.026;2024-03-07T04:40:08;36.17;;;18.67;;
21392;SDS011;10857;52.228;21.026;2024-03-07T04:42:44;37.50;;;18.10;;
21392;SDS011;10857;52.228;21.026;2024-03-07T04:45:12;44.13;;;19.77;;
21392;SDS011;10857;52.228;21.026;2024-03-07T04:47:40;34.53;;;17.17;;
21392;SDS011;10857;52.228;21.026;2024-03-07T04:50:08;40.13;;;18.97;;
21392;SDS011;10857;52.228;21.026;2024-03-07T04:52:39;36.87;;;18.37;;
21392;SDS011;10857;52.228;21.026;2024-03-07T04:55:07;37.70;;;17.93;;
21392;SDS011;10857;52.228;21.026;2024-03-07T04:57:36;37.37;;;18.23;;
21392;SDS011;10857;52.228;21.026;2024-03-07T05:00:09;38.00;;;18.67;;
21392;SDS011;10857;52.228;21.026;2024-03-07T05:02:44;40.67;;;19.60;;
21392;SDS011;10857;52.228;21.026;2024-03-07T05:05:13;36.50;;;18.43;;
21392;SDS011;10857;52.228;21.026;2024-03-07T05:07:40;40.87;;;19.13;;
21392;SDS011;10857;52.228;21.026;2024-03-07T05:10:08;39.40;;;18.23;;
21392;SDS011;10857;52.228;21.026;2024-03-07T05:12:36;38.53;;;18.03;;
21392;SDS011;10857;52.228;21.026;2024-03-07T05:15:04;34.87;;;18.20;;
21392;SDS011;10857;52.228;21.026;2024-03-07T05:17:32;34.83;;;18.40;;
21392;SDS011;10857;52.228;21.026;2024-03-07T05:20:03;36.77;;;18.37;;
21392;SDS011;10857;52.228;21.026;2024-03-07T05:22:37;37.90;;;18.50;;
21392;SDS011;10857;52.228;21.026;2024-03-07T05:25:07;34.07;;;17.63;;
21392;SDS011;10857;52.228;21.026;2024-03-07T05:27:35;34.80;;;18.30;;
21392;SDS011;10857;52.228;21.026;2024-03-07T05:30:03;35.57;;;17.93;;
21392;SDS011;10857;52.228;21.026;2024-03-07T05:32:37;34.47;;;17.73;;
21392;SDS011;10857;52.228;21.026;2024-03-07T05:35:04;35.57;;;17.67;;
21392;SDS011;10857;52.228;21.026;2024-03-07T05:37:32;34.70;;;16.83;;
21392;SDS011;10857;52.228;21.026;2024-03-07T05:40:00;36.53;;;17.50;;
21392;SDS011;10857;52.228;21.026;2024-03-07T05:42:29;37.47;;;17.97;;
21392;SDS011;10857;52.228;21.026;2024-03-07T05:44:58;36.53;;;17.57;;
21392;SDS011;10857;52.228;21.026;2024-03-07T05:47:26;37.90;;;17.70;;
21392;SDS011;10857;52.228;21.026;2024-03-07T05:49:53;35.00;;;17.10;;
21392;SDS011;10857;52.228;21.026;2024-03-07T05:52:20;38.03;;;17.53;;
21392;SDS011;10857;52.228;21.026;2024-03-07T05:54:47;35.73;;;17.10;;
21392;SDS011;10857;52.228;21.026;2024-03-07T05:57:14;35.50;;;17.57;;
21392;SDS011;10857;52.228;21.026;2024-03-07T05:59:42;37.30;;;17.63;;
21392;SDS011;10857;52.228;21.026;2024-03-07T06:02:09;32.70;;;16.37;;
21392;SDS011;10857;52.228;21.026;2024-03-07T06:04:39;35.87;;;17.13;;
21392;SDS011;10857;52.228;21.026;2024-03-07T06:07:06;33.80;;;16.57;;
21392;SDS011;10857;52.228;21.026;2024-03-07T06:09:33;34.23;;;17.20;;
21392;SDS011;10857;52.228;21.026;2024-03-07T06:12:00;33.97;;;16.57;;
21392;SDS011;10857;52.228;21.026;2024-03-07T06:14:38;35.40;;;16.30;;
21392;SDS011;10857;52.228;21.026;2024-03-07T06:17:05;31.73;;;16.10;;
21392;SDS011;10857;52.228;21.026;2024-03-07T06:19:32;33.10;;;16.57;;
21392;SDS011;10857;52.228;21.026;2024-03-07T06:21:59;38.67;;;15.20;;
21392;SDS011;10857;52.228;21.026;2024-03-07T06:24:27;32.60;;;15.43;;
21392;SDS011;10857;52.228;21.026;2024-03-07T06:26:56;32.77;;;15.90;;
21392;SDS011;10857;52.228;21.026;2024-03-07T06:29:30;35.27;;;15.77;;
21392;SDS011;10857;52.228;21.026;2024-03-07T06:31:57;33.07;;;15.90;;
21392;SDS011;10857;52.228;21.026;2024-03-07T06:34:25;30.57;;;15.30;;
21392;SDS011;10857;52.228;21.026;2024-03-07T06:36:53;29.10;;;15.70;;
21392;SDS011;10857;52.228;21.026;2024-03-07T06:39:21;30.90;;;15.57;;
21392;SDS011;10857;52.228;21.026;2024-03-07T06:41:49;36.10;;;18.00;;
21392;SDS011;10857;52.228;21.026;2024-03-07T06:44:16;35.57;;;16.03;;
21392;SDS011;10857;52.228;21.026;2024-03-07T06:46:45;28.70;;;15.17;;
21392;SDS011;10857;52.228;21.026;2024-03-07T06:49:13;30.17;;;15.47;;
21392;SDS011;10857;52.228;21.026;2024-03-07T06:51:40;30.50;;;14.83;;
21392;SDS011;10857;52.228;21.026;2024-03-07T06:54:07;30.50;;;15.50;;
21392;SDS011;10857;52.228;21.026;2024-03-07T06:56:34;32.47;;;16.03;;
21392;SDS011;10857;52.228;21.026;2024-03-07T06:59:01;31.20;;;15.37;;
21392;SDS011;10857;52.228;21.026;2024-03-07T07:01:31;32.27;;;15.23;;
21392;SDS011;10857;52.228;21.026;2024-03-07T07:04:00;29.77;;;15.27;;
21392;SDS011;10857;52.228;21.026;2024-03-07T07:06:30;30.97;;;15.20;;
21392;SDS011;10857;52.228;21.026;2024-03-07T07:08:58;28.13;;;14.40;;
21392;SDS011;10857;52.228;21.026;2024-03-07T07:11:26;35.13;;;15.63;;
21392;SDS011;10857;52.228;21.026;2024-03-07T07:14:00;31.37;;;14.80;;
21392;SDS011;10857;52.228;21.026;2024-03-07T07:16:29;33.10;;;15.10;;
21392;SDS011;10857;52.228;21.026;2024-03-07T07:18:57;26.73;;;14.60;;
21392;SDS011;10857;52.228;21.026;2024-03-07T07:21:24;31.70;;;15.90;;
21392;SDS011;10857;52.228;21.026;2024-03-07T07:23:51;30.93;;;15.37;;
21392;SDS011;10857;52.228;21.026;2024-03-07T07:26:19;27.83;;;13.60;;
21392;SDS011;10857;52.228;21.026;2024-03-07T07:28:46;44.13;;;16.03;;
21392;SDS011;10857;52.228;21.026;2024-03-07T07:31:13;22.43;;;13.27;;
21392;SDS011;10857;52.228;21.026;2024-03-07T07:33:55;25.53;;;14.07;;
21392;SDS011;10857;52.228;21.026;2024-03-07T07:36:22;24.57;;;13.13;;
21392;SDS011;10857;52.228;21.026;2024-03-07T07:38:52;27.40;;;14.13;;
21392;SDS011;10857;52.228;21.026;2024-03-07T07:41:20;26.03;;;12.53;;
21392;SDS011;10857;52.228;21.026;2024-03-07T07:43:47;23.37;;;12.97;;
21392;SDS011;10857;52.228;21.026;2024-03-07T07:46:14;22.73;;;12.60;;
21392;SDS011;10857;52.228;21.026;2024-03-07T07:48:42;24.10;;;12.50;;
21392;SDS011;10857;52.228;21.026;2024-03-07T07:51:10;24.53;;;12.70;;
21392;SDS011;10857;52.228;21.026;2024-03-07T07:53:38;22.73;;;11.40;;
21392;SDS011;10857;52.228;21.026;2024-03-07T07:56:05;21.37;;;10.77;;
21392;SDS011;10857;52.228;21.026;2024-03-07T07:58:34;19.57;;;11.33;;
21392;SDS011;10857;52.228;21.026;2024-03-07T08:01:01;18.00;;;10.90;;
21392;SDS011;10857;52.228;21.026;2024-03-07T08:03:29;22.53;;;11.47;;
21392;SDS011;10857;52.228;21.026;2024-03-07T08:05:56;20.37;;;10.50;;
21392;SDS011;10857;52.228;21.026;2024-03-07T08:08:24;20.83;;;11.47;;
21392;SDS011;10857;52.228;21.026;2024-03-07T08:10:51;22.37;;;10.93;;
21392;SDS011;10857;52.228;21.026;2024-03-07T08:13:18;21.00;;;11.00;;
21392;SDS011;10857;52.228;21.026;2024-03-07T08:15:45;22.87;;;11.30;;
21392;SDS011;10857;52.228;21.026;2024-03-07T08:18:12;21.70;;;11.20;;
21392;SDS011;10857;52.228;21.026;2024-03-07T08:20:40;19.43;;;9.97;;
21392;SDS011;10857;52.228;21.026;2024-03-07T08:23:10;21.17;;;10.60;;
21392;SDS011;10857;52.228;21.026;2024-03-07T08:25:37;19.23;;;10.20;;
21392;SDS011;10857;52.228;21.026;2024-03-07T08:28:07;21.43;;;11.10;;
21392;SDS011;10857;52.228;21.026;2024-03-07T08:30:34;18.23;;;10.40;;
21392;SDS011;10857;52.228;21.026;2024-03-07T08:33:02;18.97;;;9.90;;
21392;SDS011;10857;52.228;21.026;2024-03-07T08:35:33;20.50;;;10.30;;
21392;SDS011;10857;52.228;21.026;2024-03-07T08:38:01;17.33;;;9.80;;
21392;SDS011;10857;52.228;21.026;2024-03-07T08:40:28;18.10;;;9.83;;
21392;SDS011;10857;52.228;21.026;2024-03-07T08:43:01;19.63;;;10.07;;
21392;SDS011;10857;52.228;21.026;2024-03-07T08:45:30;20.13;;;10.60;;
21392;SDS011;10857;52.228;21.026;2024-03-07T08:48:01;19.03;;;10.47;;
21392;SDS011;10857;52.228;21.026;2024-03-07T08:50:31;18.23;;;9.77;;
21392;SDS011;10857;52.228;21.026;2024-03-07T08:53:01;17.23;;;9.67;;
21392;SDS011;10857;52.228;21.026;2024-03-07T08:55:28;15.80;;;9.40;;
21392;SDS011;10857;52.228;21.026;2024-03-07T08:57:55;16.40;;;9.80;;
21392;SDS011;10857;52.228;21.026;2024-03-07T09:00:22;18.57;;;9.10;;
21392;SDS011;10857;52.228;21.026;2024-03-07T09:02:59;20.77;;;9.73;;
21392;SDS011;10857;52.228;21.026;2024-03-07T09:05:30;15.50;;;8.73;;
21392;SDS011;10857;52.228;21.026;2024-03-07T09:08:01;16.20;;;8.90;;
21392;SDS011;10857;52.228;21.026;2024-03-07T09:10:30;15.53;;;8.67;;
21392;SDS011;10857;52.228;21.026;2024-03-07T09:12:57;12.33;;;7.30;;
21392;SDS011;10857;52.228;21.026;2024-03-07T09:15:25;13.27;;;7.13;;
21392;SDS011;10857;52.228;21.026;2024-03-07T09:17:53;13.17;;;7.47;;
21392;SDS011;10857;52.228;21.026;2024-03-07T09:20:22;12.10;;;7.60;;
21392;SDS011;10857;52.228;21.026;2024-03-07T09:22:50;12.53;;;6.83;;
21392;SDS011;10857;52.228;21.026;2024-03-07T09:25:21;16.90;;;8.00;;
21392;SDS011;10857;52.228;21.026;2024-03-07T09:27:53;15.27;;;8.03;;
21392;SDS011;10857;52.228;21.026;2024-03-07T09:30:23;12.77;;;7.90;;
21392;SDS011;10857;52.228;21.026;2024-03-07T09:32:56;12.17;;;7.23;;
21392;SDS011;10857;52.228;21.026;2024-03-07T09:35:23;14.23;;;7.97;;
21392;SDS011;10857;52.228;21.026;2024-03-07T09:37:51;12.63;;;7.13;;
21392;SDS011;10857;52.228;21.026;2024-03-07T09:40:18;14.27;;;7.87;;
21392;SDS011;10857;52.228;21.026;2024-03-07T09:42:51;15.43;;;7.57;;
21392;SDS011;10857;52.228;21.026;2024-03-07T09:45:21;14.77;;;7.90;;
21392;SDS011;10857;52.228;21.026;2024-03-07T09:47:50;15.63;;;7.20;;
21392;SDS011;10857;52.228;21.026;2024-03-07T09:50:20;13.87;;;7.53;;
21392;SDS011;10857;52.228;21.026;2024-03-07T09:52:50;13.40;;;7.90;;
21392;SDS011;10857;52.228;21.026;2024-03-07T09:55:20;12.43;;;7.70;;
21392;SDS011;10857;52.228;21.026;2024-03-07T09:57:48;13.73;;;7.73;;
21392;SDS011;10857;52.228;21.026;2024-03-07T10:00:17;11.57;;;7.47;;
21392;SDS011;10857;52.228;21.026;2024-03-07T10:02:56;16.80;;;7.90;;
21392;SDS011;10857;52.228;21.026;2024-03-07T10:05:26;13.77;;;7.57;;
21392;SDS011;10857;52.228;21.026;2024-03-07T10:07:54;11.50;;;7.27;;
21392;SDS011;10857;52.228;21.026;2024-03-07T10:10:22;12.57;;;8.00;;
21392;SDS011;10857;52.228;21.026;2024-03-07T10:12:50;11.73;;;7.47;;
21392;SDS011;10857;52.228;21.026;2024-03-07T10:15:20;12.73;;;8.00;;
21392;SDS011;10857;52.228;21.026;2024-03-07T10:17:48;15.17;;;7.90;;
21392;SDS011;10857;52.228;21.026;2024-03-07T10:20:17;13.13;;;8.63;;
21392;SDS011;10857;52.228;21.026;2024-03-07T10:22:50;16.30;;;8.30;;
21392;SDS011;10857;52.228;21.026;2024-03-07T10:25:18;13.27;;;8.37;;
21392;SDS011;10857;52.228;21.026;2024-03-07T10:27:52;17.27;;;8.20;;
21392;SDS011;10857;52.228;21.026;2024-03-07T10:30:19;12.70;;;8.10;;
21392;SDS011;10857;52.228;21.026;2024-03-07T10:32:56;15.37;;;8.07;;
21392;SDS011;10857;52.228;21.026;2024-03-07T10:35:28;12.80;;;7.90;;
21392;SDS011;10857;52.228;21.026;2024-03-07T10:37:57;12.93;;;7.80;;
21392;SDS011;10857;52.228;21.026;2024-03-07T10:40:28;14.73;;;8.07;;
21392;SDS011;10857;52.228;21.026;2024-03-07T10:42:57;14.13;;;7.67;;
21392;SDS011;10857;52.228;21.026;2024-03-07T10:45:30;13.57;;;8.03;;
21392;SDS011;10857;52.228;21.026;2024-03-07T10:48:01;12.70;;;7.43;;
21392;SDS011;10857;52.228;21.026;2024-03-07T10:50:46;14.87;;;8.97;;
21392;SDS011;10857;52.228;21.026;2024-03-07T10:59:49;16.33;;;8.90;;
21392;SDS011;10857;52.228;21.026;2024-03-07T11:02:27;13.03;;;7.93;;
21392;SDS011;10857;52.228;21.026;2024-03-07T11:05:00;14.00;;;7.90;;
21392;SDS011;10857;52.228;21.026;2024-03-07T11:07:28;13.00;;;7.60;;
21392;SDS011;10857;52.228;21.026;2024-03-07T11:09:57;13.30;;;8.13;;
21392;SDS011;10857;52.228;21.026;2024-03-07T11:12:25;12.83;;;7.60;;
21392;SDS011;10857;52.228;21.026;2024-03-07T11:14:55;11.53;;;7.30;;
21392;SDS011;10857;52.228;21.026;2024-03-07T11:17:24;16.10;;;7.97;;
21392;SDS011;10857;52.228;21.026;2024-03-07T11:19:51;15.30;;;8.10;;
21392;SDS011;10857;52.228;21.026;2024-03-07T11:22:28;13.50;;;8.13;;
21392;SDS011;10857;52.228;21.026;2024-03-07T11:25:04;13.93;;;8.27;;
21392;SDS011;10857;52.228;21.026;2024-03-07T11:27:37;13.77;;;7.50;;
21392;SDS011;10857;52.228;21.026;2024-03-07T11:30:06;14.27;;;7.77;;
21392;SDS011;10857;52.228;21.026;2024-03-07T11:32:35;14.83;;;8.13;;
21392;SDS011;10857;52.228;21.026;2024-03-07T11:35:12;15.87;;;8.57;;
21392;SDS011;10857;52.228;21.026;2024-03-07T11:37:49;14.70;;;8.30;;
21392;SDS011;10857;52.228;21.026;2024-03-07T11:42:52;18.27;;;8.47;;
21392;SDS011;10857;52.228;21.026;2024-03-07T11:45:20;15.97;;;8.40;;
21392;SDS011;10857;52.228;21.026;2024-03-07T11:47:55;16.07;;;8.53;;
21392;SDS011;10857;52.228;21.026;2024-03-07T11:50:36;15.33;;;9.50;;
21392;SDS011;10857;52.228;21.026;2024-03-07T11:53:07;13.03;;;8.00;;
21392;SDS011;10857;52.228;21.026;2024-03-07T11:55:35;13.37;;;8.17;;
21392;SDS011;10857;52.228;21.026;2024-03-07T11:58:16;10.97;;;7.60;;
21392;SDS011;10857;52.228;21.026;2024-03-07T12:00:45;13.53;;;8.20;;
21392;SDS011;10857;52.228;21.026;2024-03-07T12:03:16;11.70;;;7.50;;
21392;SDS011;10857;52.228;21.026;2024-03-07T12:05:45;14.90;;;8.07;;
21392;SDS011;10857;52.228;21.026;2024-03-07T12:08:13;16.67;;;7.77;;
21392;SDS011;10857;52.228;21.026;2024-03-07T12:10:41;14.37;;;7.70;;
21392;SDS011;10857;52.228;21.026;2024-03-07T12:13:15;21.10;;;8.30;;
21392;SDS011;10857;52.228;21.026;2024-03-07T12:15:42;11.83;;;7.73;;
21392;SDS011;10857;52.228;21.026;2024-03-07T12:18:10;12.63;;;7.63;;
21392;SDS011;10857;52.228;21.026;2024-03-07T12:20:41;15.83;;;8.90;;
21392;SDS011;10857;52.228;21.026;2024-03-07T12:23:13;11.33;;;7.40;;
21392;SDS011;10857;52.228;21.026;2024-03-07T12:25:45;12.60;;;8.10;;
21392;SDS011;10857;52.228;21.026;2024-03-07T12:28:13;12.63;;;7.90;;
21392;SDS011;10857;52.228;21.026;2024-03-07T12:30:48;16.77;;;7.67;;
21392;SDS011;10857;52.228;21.026;2024-03-07T12:33:17;12.43;;;7.77;;
21392;SDS011;10857;52.228;21.026;2024-03-07T12:35:46;15.03;;;8.10;;
21392;SDS011;10857;52.228;21.026;2024-03-07T12:38:16;13.67;;;7.87;;
21392;SDS011;10857;52.228;21.026;2024-03-07T12:40:45;13.73;;;8.23;;
21392;SDS011;10857;52.228;21.026;2024-03-07T12:43:13;12.83;;;8.07;;
21392;SDS011;10857;52.228;21.026;2024-03-07T12:45:47;13.80;;;8.70;;
21392;SDS011;10857;52.228;21.026;2024-03-07T12:48:19;14.23;;;8.87;;
21392;SDS011;10857;52.228;21.026;2024-03-07T12:50:48;14.03;;;8.53;;
21392;SDS011;10857;52.228;21.026;2024-03-07T12:53:23;13.40;;;8.00;;
21392;SDS011;10857;52.228;21.026;2024-03-07T12:55:52;15.13;;;8.23;;
21392;SDS011;10857;52.228;21.026;2024-03-07T12:58:19;19.50;;;8.27;;
21392;SDS011;10857;52.228;21.026;2024-03-07T13:00:48;13.43;;;7.73;;
21392;SDS011;10857;52.228;21.026;2024-03-07T13:03:16;13.20;;;7.87;;
21392;SDS011;10857;52.228;21.026;2024-03-07T13:05:43;11.77;;;7.78;;
21392;SDS011;10857;52.228;21.026;2024-03-07T13:08:10;12.07;;;8.00;;
21392;SDS011;10857;52.228;21.026;2024-03-07T13:10:43;13.53;;;7.53;;
21392;SDS011;10857;52.228;21.026;2024-03-07T13:13:13;12.70;;;7.87;;
21392;SDS011;10857;52.228;21.026;2024-03-07T13:15:40;11.97;;;7.70;;
21392;SDS011;10857;52.228;21.026;2024-03-07T13:18:08;11.97;;;7.23;;
21392;SDS011;10857;52.228;21.026;2024-03-07T13:20:36;10.33;;;7.10;;
21392;SDS011;10857;52.228;21.026;2024-03-07T13:23:03;11.70;;;7.37;;
21392;SDS011;10857;52.228;21.026;2024-03-07T13:25:31;11.03;;;7.03;;
21392;SDS011;10857;52.228;21.026;2024-03-07T13:30:51;12.80;;;7.10;;
21392;SDS011;10857;52.228;21.026;2024-03-07T13:33:21;14.33;;;7.33;;
21392;SDS011;10857;52.228;21.026;2024-03-07T13:35:52;10.77;;;7.43;;
21392;SDS011;10857;52.228;21.026;2024-03-07T13:38:20;14.73;;;7.97;;
21392;SDS011;10857;52.228;21.026;2024-03-07T13:40:47;12.57;;;7.83;;
21392;SDS011;10857;52.228;21.026;2024-03-07T13:43:16;10.40;;;7.40;;
21392;SDS011;10857;52.228;21.026;2024-03-07T13:45:44;12.53;;;7.60;;
21392;SDS011;10857;52.228;21.026;2024-03-07T13:48:15;14.53;;;7.80;;
21392;SDS011;10857;52.228;21.026;2024-03-07T13:50:46;11.77;;;7.80;;
21392;SDS011;10857;52.228;21.026;2024-03-07T13:53:26;12.43;;;7.80;;
21392;SDS011;10857;52.228;21.026;2024-03-07T14:12:53;11.67;;;7.40;;
21392;SDS011;10857;52.228;21.026;2024-03-07T14:16:04;12.63;;;7.60;;
21392;SDS011;10857;52.228;21.026;2024-03-07T14:33:13;12.53;;;8.00;;
21392;SDS011;10857;52.228;21.026;2024-03-07T14:38:49;13.63;;;8.23;;
21392;SDS011;10857;52.228;21.026;2024-03-07T14:41:23;12.07;;;7.87;;
21392;SDS011;10857;52.228;21.026;2024-03-07T14:44:07;14.43;;;7.80;;
21392;SDS011;10857;52.228;21.026;2024-03-07T14:46:35;12.37;;;7.60;;
21392;SDS011;10857;52.228;21.026;2024-03-07T14:49:02;14.43;;;8.57;;
21392;SDS011;10857;52.228;21.026;2024-03-07T14:51:31;14.33;;;8.67;;
21392;SDS011;10857;52.228;21.026;2024-03-07T14:54:10;12.67;;;8.27;;
21392;SDS011;10857;52.228;21.026;2024-03-07T14:56:37;13.33;;;7.87;;
21392;SDS011;10857;52.228;21.026;2024-03-07T14:59:05;15.13;;;8.10;;
21392;SDS011;10857;52.228;21.026;2024-03-07T15:01:32;11.90;;;7.70;;
21392;SDS011;10857;52.228;21.026;2024-03-07T15:04:02;12.93;;;7.50;;
21392;SDS011;10857;52.228;21.026;2024-03-07T15:06:33;14.13;;;7.53;;
21392;SDS011;10857;52.228;21.026;2024-03-07T15:09:01;16.63;;;8.10;;
21392;SDS011;10857;52.228;21.026;2024-03-07T15:11:31;14.17;;;7.80;;
21392;SDS011;10857;52.228;21.026;2024-03-07T15:14:03;11.03;;;6.93;;